createdAt,value
2023-05-22T00:03:38.420Z,47.4
2023-05-22T00:09:29.913Z,47.4
2023-05-22T00:15:05.085Z,47.3
2023-05-22T00:20:58.030Z,47.3
2023-05-22T00:26:49.654Z,47.3
2023-05-22T00:32:40.654Z,47.3
2023-05-22T00:38:32.451Z,47.2
2023-05-22T00:44:24.593Z,47.2
2023-05-22T00:50:15.785Z,47.1
2023-05-22T00:56:06.984Z,47.1
2023-05-22T01:01:59.058Z,47.1
2023-05-22T01:07:51.348Z,47
2023-05-22T01:13:43.169Z,47
2023-05-22T01:19:35.281Z,46.9
2023-05-22T01:25:26.884Z,46.9
2023-05-22T01:31:18.614Z,46.9
2023-05-22T01:37:10.596Z,46.9
2023-05-22T01:43:01.669Z,46.9
2023-05-22T01:48:54.228Z,46.8
2023-05-22T01:54:45.138Z,46.8
2023-05-22T02:00:36.375Z,46.8
2023-05-22T02:06:30.178Z,46.7
2023-05-22T02:12:21.877Z,46.7
2023-05-22T02:18:13.419Z,46.6
2023-05-22T02:23:50.285Z,46.6
2023-05-22T02:29:42.052Z,46.6
2023-05-22T02:35:33.724Z,46.6
2023-05-22T02:41:25.908Z,46.5
2023-05-22T02:47:17.665Z,46.4
2023-05-22T02:53:08.662Z,46.4
2023-05-22T02:59:00.397Z,46.4
2023-05-22T03:04:52.828Z,46.4
2023-05-22T03:10:44.294Z,46.4
2023-05-22T03:16:36.087Z,46.3
2023-05-22T03:22:28.222Z,46.3
2023-05-22T03:28:18.971Z,46.3
2023-05-22T03:34:11.797Z,46.2
2023-05-22T03:39:48.032Z,46.2
2023-05-22T03:45:40.831Z,46.1
2023-05-22T03:51:19.363Z,46.1
2023-05-22T03:57:11.470Z,46.1
2023-05-22T04:03:02.037Z,46
2023-05-22T04:08:54.247Z,46
2023-05-22T04:14:46.709Z,46
2023-05-22T04:20:37.368Z,45.9
2023-05-22T04:26:29.041Z,45.9
2023-05-22T04:32:05.616Z,45.9
2023-05-22T04:37:41.462Z,45.9
2023-05-22T04:43:35.080Z,45.8
2023-05-22T04:49:27.172Z,45.8
2023-05-22T04:55:20.376Z,45.8
2023-05-22T05:01:23.330Z,45.7
2023-05-22T05:07:16.483Z,45.7
2023-05-22T05:13:08.343Z,45.6
2023-05-22T05:19:00.997Z,45.6
2023-05-22T05:24:40.150Z,45.6
2023-05-22T05:30:30.909Z,45.5
2023-05-22T05:36:22.654Z,45.5
2023-05-22T05:41:58.822Z,45.4
2023-05-22T05:47:50.311Z,45.4
2023-05-22T05:53:41.467Z,45.4
2023-05-22T05:59:34.381Z,45.4
2023-05-22T06:05:27.836Z,45.3
2023-05-22T06:11:04.312Z,45.3
2023-05-22T06:16:57.281Z,45.3
2023-05-22T06:22:49.108Z,45.2
2023-05-22T06:28:40.665Z,45.2
2023-05-22T06:34:53.586Z,45.1
2023-05-22T06:40:45.024Z,45.1
2023-05-22T06:46:37.097Z,45.1
2023-05-22T06:52:29.586Z,45.1
2023-05-22T06:58:21.620Z,45
2023-05-22T07:04:14.164Z,45
2023-05-22T07:10:09.438Z,44.9
2023-05-22T07:16:03.029Z,44.9
2023-05-22T07:21:56.958Z,44.9
2023-05-22T07:27:49.492Z,44.8
2023-05-22T07:33:41.681Z,44.8
2023-05-22T07:39:34.073Z,44.8
2023-05-22T07:45:28.734Z,44.7
2023-05-22T07:51:20.792Z,44.7
2023-05-22T07:57:15.063Z,44.7
2023-05-22T08:03:07.440Z,44.6
2023-05-22T08:08:48.405Z,44.6
2023-05-22T08:15:04.594Z,44.6
2023-05-22T08:21:05.316Z,44.6
2023-05-22T08:26:41.955Z,44.6
2023-05-22T08:32:34.963Z,44.5
2023-05-22T08:38:28.198Z,44.5
2023-05-22T08:44:21.579Z,44.4
2023-05-22T08:50:13.606Z,44.6
2023-05-22T08:56:06.520Z,44.9
2023-05-22T09:02:06.520Z,45.6
2023-05-22T09:08:05.571Z,46.1
2023-05-22T09:14:05.247Z,46.4
2023-05-22T09:19:58.739Z,46.4
2023-05-22T09:26:04.805Z,46.4
2023-05-22T09:31:57.792Z,46.4
2023-05-22T09:37:50.452Z,46.4
2023-05-22T09:43:43.151Z,46.4
2023-05-22T09:49:38.813Z,46.4
2023-05-22T09:55:30.364Z,46.4
2023-05-22T10:01:40.629Z,46.4
2023-05-22T10:07:35.842Z,46.4
2023-05-22T10:13:32.127Z,46.4
2023-05-22T10:19:26.981Z,46.4
2023-05-22T10:25:23.562Z,46.4
2023-05-22T10:31:00.728Z,46.4
2023-05-22T10:36:58.215Z,46.4
2023-05-22T10:42:58.919Z,46.4
2023-05-22T10:48:38.322Z,46.4
2023-05-22T10:54:32.005Z,46.4
2023-05-22T11:00:25.896Z,46.3
2023-05-22T11:06:30.271Z,46.3
2023-05-22T11:12:25.525Z,46.3
2023-05-22T11:18:24.551Z,46.3
2023-05-22T11:24:27.263Z,46.3
2023-05-22T11:30:51.016Z,46.2
2023-05-22T11:36:29.587Z,46.2
2023-05-22T11:42:23.507Z,46.1
2023-05-22T11:48:18.279Z,46.1
2023-05-22T11:54:23.205Z,46.1
2023-05-22T12:00:18.607Z,46.1
2023-05-22T12:06:18.234Z,46.1
2023-05-22T12:12:14.862Z,46
2023-05-22T12:17:54.029Z,45.9
2023-05-22T12:23:49.633Z,45.9
2023-05-22T12:29:46.604Z,45.9
2023-05-22T12:35:41.303Z,45.9
2023-05-22T12:41:20.788Z,45.8
2023-05-22T12:47:16.386Z,45.8
2023-05-22T12:52:59.561Z,45.8
2023-05-22T12:58:54.867Z,45.8
2023-05-22T13:04:50.447Z,45.7
2023-05-22T13:10:29.923Z,45.7
2023-05-22T13:16:31.572Z,45.7
2023-05-22T13:22:34.386Z,45.6
2023-05-22T13:28:34.867Z,45.6
2023-05-22T13:34:18.037Z,45.6
2023-05-22T13:40:14.962Z,45.6
2023-05-22T13:46:11.032Z,45.5
2023-05-22T13:51:51.382Z,45.5
2023-05-22T13:57:44.879Z,45.4
2023-05-22T14:03:09.949Z,45.4
2023-05-22T14:08:47.516Z,45.4
2023-05-22T14:14:24.963Z,45.4
2023-05-22T14:20:02.053Z,45.4
2023-05-22T14:26:06.012Z,45.3
2023-05-22T14:31:59.325Z,45.3
2023-05-22T14:37:36.691Z,45.3
2023-05-22T14:42:57.700Z,45.3
2023-05-22T14:48:51.287Z,45.3
2023-05-22T14:54:56.582Z,45.2
2023-05-22T15:00:49.342Z,45.2
2023-05-22T15:06:44.117Z,45.1
2023-05-22T15:12:45.698Z,45.1
2023-05-22T15:18:38.296Z,45.1
2023-05-22T15:24:45.953Z,45.1
2023-05-22T15:30:38.742Z,45
2023-05-22T15:36:31.367Z,45
2023-05-22T15:42:35.467Z,44.9
2023-05-22T15:48:29.108Z,44.9
2023-05-22T15:54:21.812Z,44.9
2023-05-22T16:00:18.435Z,44.9
2023-05-22T16:05:56.419Z,44.8
2023-05-22T16:11:49.655Z,44.8
2023-05-22T16:17:47.314Z,44.8
2023-05-22T16:23:52.976Z,44.8
2023-05-22T16:29:48.425Z,44.8
2023-05-22T16:35:42.782Z,44.7
2023-05-22T16:41:19.056Z,44.7
2023-05-22T16:47:13.728Z,44.6
2023-05-22T16:53:06.903Z,44.6
2023-05-22T16:58:59.103Z,44.6
2023-05-22T17:04:52.747Z,44.6
2023-05-22T17:10:30.761Z,44.5
2023-05-22T17:16:23.136Z,44.5
2023-05-22T17:22:18.403Z,44.5
2023-05-22T17:28:08.513Z,44.4
2023-05-22T17:33:45.823Z,44.3
2023-05-22T17:39:37.777Z,44.2
2023-05-22T17:45:46.291Z,44.1
2023-05-22T17:51:38.969Z,44
2023-05-22T17:57:17.189Z,43.9
2023-05-22T18:02:39.555Z,43.9
2023-05-22T18:08:35.448Z,43.9
2023-05-22T18:14:43.342Z,43.9
2023-05-22T18:20:36.582Z,43.8
2023-05-22T18:26:13.469Z,43.8
2023-05-22T18:31:50.049Z,43.8
2023-05-22T18:37:43.995Z,43.7
2023-05-22T18:43:36.104Z,43.6
2023-05-22T18:49:29.023Z,43.5
2023-05-22T18:55:21.699Z,43.4
2023-05-22T19:01:14.691Z,43.4
2023-05-22T19:06:21.684Z,43.3
2023-05-22T19:11:47.403Z,43.1
2023-05-22T19:17:24.561Z,42.9
2023-05-22T19:22:46.174Z,42.6
2023-05-22T19:27:55.507Z,42.3
2023-05-22T19:33:33.754Z,42.1
2023-05-22T19:39:26.526Z,42.1
2023-05-22T19:45:19.571Z,42
2023-05-22T19:50:57.969Z,41.9
2023-05-22T19:56:49.876Z,41.9
2023-05-22T20:02:44.164Z,41.8
2023-05-22T20:08:06.057Z,41.8
2023-05-22T20:13:42.879Z,41.8
2023-05-22T20:19:20.918Z,41.6
2023-05-22T20:25:13.728Z,41.4
2023-05-22T20:31:06.054Z,41.4
2023-05-22T20:36:59.882Z,41.3
2023-05-22T20:42:52.676Z,41.2
2023-05-22T20:48:45.038Z,41
2023-05-22T20:54:22.194Z,40.9
2023-05-22T21:00:13.601Z,40.8
2023-05-22T21:06:06.885Z,40.8
2023-05-22T21:12:01.402Z,40.7
2023-05-22T21:17:53.862Z,40.6
2023-05-22T21:23:46.838Z,40.6
2023-05-22T21:29:39.766Z,40.6
2023-05-22T21:35:33.169Z,40.5
2023-05-22T21:41:25.579Z,40.5
2023-05-22T21:47:15.710Z,40.4
2023-05-22T21:53:09.445Z,40.4
2023-05-22T21:59:01.548Z,40.3
2023-05-22T22:04:55.525Z,40.3
2023-05-22T22:10:47.849Z,40.3
2023-05-22T22:16:40.328Z,40.3
2023-05-22T22:22:46.594Z,40.2
2023-05-22T22:28:38.653Z,40.2
2023-05-22T22:34:31.214Z,40.1
2023-05-22T22:40:25.416Z,40.1
2023-05-22T22:46:04.654Z,40.1
2023-05-22T22:51:41.873Z,40
2023-05-22T22:57:36.154Z,40
2023-05-22T23:03:28.192Z,39.9
2023-05-22T23:09:21.492Z,39.9
2023-05-22T23:15:14.760Z,39.9
2023-05-22T23:21:06.858Z,39.9
2023-05-22T23:26:15.926Z,39.8
2023-05-22T23:32:08.118Z,39.8
2023-05-22T23:37:44.123Z,39.8
2023-05-22T23:43:20.982Z,39.8
2023-05-22T23:48:58.165Z,39.7
2023-05-22T23:54:49.596Z,39.7
